Time,TemperatureF,DewpointF,PressureIn,WindDirection,WindDirectionDegrees,WindSpeedMPH,WindSpeedGustMPH,Humidity,HourlyPrecipIn,Conditions,Clouds,dailyrainin,SoftwareType,DateUTC
2013-02-05 00:01:00,46.0,33.0,-100.00,North,355,6.0,11.0,61,-99.99,,,-99.99,,2013-02-05 08:01:00,
2013-02-05 00:11:00,44.0,33.0,-100.00,NE,38,2.0,5.0,64,-99.99,,,-99.99,,2013-02-05 08:11:00,
2013-02-05 00:21:00,44.0,34.0,-100.00,North,2,3.0,10.0,67,-99.99,,,-99.99,,2013-02-05 08:21:00,
2013-02-05 00:31:00,45.0,33.0,-100.00,North,6,7.0,11.0,63,-99.99,,,-99.99,,2013-02-05 08:31:00,
2013-02-05 00:41:00,45.0,34.0,-100.00,NNE,17,2.0,7.0,64,-99.99,,,-99.99,,2013-02-05 08:41:00,
2013-02-05 00:52:00,44.0,33.0,-100.00,NNE,21,3.0,8.0,65,-99.99,,,-99.99,,2013-02-05 08:52:00,
2013-02-05 01:02:00,43.0,33.0,-100.00,NNE,32,2.0,4.0,68,-99.99,,,-99.99,,2013-02-05 09:02:00,
2013-02-05 01:11:00,43.0,34.0,-100.00,NNE,21,3.0,5.0,69,-99.99,,,-99.99,,2013-02-05 09:11:00,
2013-02-05 01:21:00,44.0,33.0,-100.00,NNE,32,2.0,5.0,66,-99.99,,,-99.99,,2013-02-05 09:21:00,
2013-02-05 01:31:00,43.0,34.0,-100.00,NNE,27,2.0,5.0,69,-99.99,,,-99.99,,2013-02-05 09:31:00,
2013-02-05 01:42:00,43.0,34.0,-100.00,NNE,20,1.0,2.0,71,-99.99,,,-99.99,,2013-02-05 09:42:00,
2013-02-05 01:51:00,44.0,34.0,-100.00,NNE,32,3.0,6.0,67,-99.99,,,-99.99,,2013-02-05 09:51:00,
2013-02-05 02:01:00,42.0,34.0,-100.00,NE,44,2.0,3.0,72,-99.99,,,-99.99,,2013-02-05 10:01:00,
2013-02-05 02:11:00,42.0,34.0,-100.00,NNE,32,2.0,3.0,72,-99.99,,,-99.99,,2013-02-05 10:11:00,
2013-02-05 02:21:00,43.0,34.0,-100.00,NE,38,3.0,4.0,70,-99.99,,,-99.99,,2013-02-05 10:21:00,
2013-02-05 02:31:00,43.0,34.0,-100.00,NNE,25,1.0,3.0,70,-99.99,,,-99.99,,2013-02-05 10:31:00,
2013-02-05 02:42:00,42.0,34.0,-100.00,NNE,29,2.0,4.0,72,-99.99,,,-99.99,,2013-02-05 10:42:00,
2013-02-05 02:52:00,42.0,34.0,-100.00,NNE,19,3.0,5.0,73,-99.99,,,-99.99,,2013-02-05 10:52:00,
2013-02-05 03:01:00,42.0,34.0,-100.00,North,1,3.0,5.0,72,-99.99,,,-99.99,,2013-02-05 11:01:00,
2013-02-05 03:11:00,43.0,34.0,-100.00,NNE,15,2.0,3.0,69,-99.99,,,-99.99,,2013-02-05 11:11:00,
2013-02-05 03:22:00,41.0,34.0,-100.00,ENE,62,2.0,4.0,75,-99.99,,,-99.99,,2013-02-05 11:22:00,
2013-02-05 03:32:00,41.0,33.0,-100.00,ENE,76,1.0,5.0,74,-99.99,,,-99.99,,2013-02-05 11:32:00,
2013-02-05 03:41:00,41.0,33.0,-100.00,East,94,1.0,3.0,73,-99.99,,,-99.99,,2013-02-05 11:41:00,
2013-02-05 03:52:00,40.0,32.0,-100.00,ENE,73,1.0,3.0,74,-99.99,,,-99.99,,2013-02-05 11:52:00,
2013-02-05 04:01:00,41.0,33.0,-100.00,North,6,2.0,2.0,74,-99.99,,,-99.99,,2013-02-05 12:01:00,
2013-02-05 04:12:00,42.0,33.0,-100.00,North,11,2.0,5.0,70,-99.99,,,-99.99,,2013-02-05 12:12:00,
2013-02-05 04:21:00,42.0,33.0,-100.00,NNE,16,3.0,5.0,69,-99.99,,,-99.99,,2013-02-05 12:21:00,
2013-02-05 04:31:00,42.0,31.0,-100.00,NNE,23,3.0,5.0,66,-99.99,,,-99.99,,2013-02-05 12:31:00,
2013-02-05 04:41:00,42.0,31.0,-100.00,NNE,23,3.0,5.0,66,-99.99,,,-99.99,,2013-02-05 12:41:00,
2013-02-05 04:52:00,42.0,31.0,-100.00,North,9,5.0,8.0,65,-99.99,,,-99.99,,2013-02-05 12:52:00,
2013-02-05 05:01:00,41.0,31.0,-100.00,NNE,21,4.0,6.0,67,-99.99,,,-99.99,,2013-02-05 13:01:00,
2013-02-05 05:11:00,42.0,31.0,-100.00,NNE,15,4.0,5.0,66,-99.99,,,-99.99,,2013-02-05 13:11:00,
2013-02-05 05:21:00,41.0,31.0,-100.00,NNE,25,2.0,7.0,67,-99.99,,,-99.99,,2013-02-05 13:21:00,
2013-02-05 05:31:00,43.0,30.0,-100.00,North,7,4.0,8.0,59,-99.99,,,-99.99,,2013-02-05 13:31:00,
2013-02-05 05:41:00,40.0,30.0,-100.00,NNE,17,1.0,3.0,68,-99.99,,,-99.99,,2013-02-05 13:41:00,
2013-02-05 05:51:00,41.0,31.0,-100.00,ENE,62,2.0,4.0,67,-99.99,,,-99.99,,2013-02-05 13:51:00,
2013-02-05 06:01:00,40.0,30.0,-100.00,NNE,12,2.0,3.0,68,-99.99,,,-99.99,,2013-02-05 14:01:00,
2013-02-05 06:12:00,42.0,30.0,-100.00,NE,37,2.0,4.0,62,-99.99,,,-99.99,,2013-02-05 14:12:00,
2013-02-05 06:21:00,41.0,30.0,-100.00,NNE,20,3.0,4.0,64,-99.99,,,-99.99,,2013-02-05 14:21:00,
2013-02-05 06:31:00,42.0,30.0,-100.00,NNE,20,3.0,4.0,61,-99.99,,,-99.99,,2013-02-05 14:31:00,
2013-02-05 06:41:00,40.0,30.0,-100.00,North,8,2.0,4.0,67,-99.99,,,-99.99,,2013-02-05 14:41:00,
2013-02-05 06:52:00,41.0,30.0,-100.00,NE,47,2.0,5.0,64,-99.99,,,-99.99,,2013-02-05 14:52:00,
2013-02-05 07:01:00,41.0,29.0,-100.00,North,9,3.0,5.0,63,-99.99,,,-99.99,,2013-02-05 15:01:00,
2013-02-05 07:11:00,40.0,29.0,-100.00,NNE,29,3.0,5.0,64,-99.99,,,-99.99,,2013-02-05 15:11:00,
2013-02-05 07:21:00,40.0,29.0,-100.00,NE,40,1.0,3.0,64,-99.99,,,-99.99,,2013-02-05 15:21:00,
2013-02-05 07:32:00,41.0,29.0,-100.00,NNE,17,2.0,6.0,61,-99.99,,,-99.99,,2013-02-05 15:32:00,
2013-02-05 07:41:00,41.0,29.0,-100.00,NNE,31,3.0,4.0,62,-99.99,,,-99.99,,2013-02-05 15:41:00,
2013-02-05 07:51:00,43.0,29.0,-100.00,North,7,2.0,5.0,58,-99.99,,,-99.99,,2013-02-05 15:51:00,
2013-02-05 08:01:00,42.0,29.0,-100.00,NE,37,1.0,4.0,60,-99.99,,,-99.99,,2013-02-05 16:01:00,
2013-02-05 08:11:00,46.0,30.0,-100.00,NE,39,0.0,1.0,53,-99.99,,,-99.99,,2013-02-05 16:11:00,
2013-02-05 08:22:00,49.0,30.0,-100.00,NNE,31,1.0,4.0,47,-99.99,,,-99.99,,2013-02-05 16:22:00,
2013-02-05 08:32:00,50.0,31.0,-100.00,NNE,27,2.0,4.0,48,-99.99,,,-99.99,,2013-02-05 16:32:00,
2013-02-05 08:41:00,52.0,30.0,-100.00,South,170,1.0,3.0,43,-99.99,,,-99.99,,2013-02-05 16:41:00,
2013-02-05 08:51:00,52.0,30.0,-100.00,South,184,2.0,4.0,42,-99.99,,,-99.99,,2013-02-05 16:51:00,
2013-02-05 09:01:00,52.0,30.0,-100.00,South,184,2.0,4.0,42,-99.99,,,-99.99,,2013-02-05 17:01:00,
2013-02-05 09:11:00,53.0,31.0,-100.00,South,180,3.0,5.0,42,-99.99,,,-99.99,,2013-02-05 17:11:00,
2013-02-05 09:21:00,52.0,30.0,-100.00,SSW,194,3.0,5.0,42,-99.99,,,-99.99,,2013-02-05 17:21:00,
2013-02-05 09:32:00,53.0,30.0,-100.00,South,190,2.0,4.0,41,-99.99,,,-99.99,,2013-02-05 17:32:00,
2013-02-05 09:41:00,56.0,29.0,-100.00,SSE,152,1.0,2.0,36,-99.99,,,-99.99,,2013-02-05 17:41:00,
2013-02-05 09:52:00,59.0,28.0,-100.00,South,190,1.0,2.0,30,-99.99,,,-99.99,,2013-02-05 17:52:00,
2013-02-05 10:01:00,59.0,28.0,-100.00,South,186,1.0,3.0,31,-99.99,,,-99.99,,2013-02-05 18:01:00,
2013-02-05 10:11:00,60.0,29.0,-100.00,South,182,1.0,4.0,31,-99.99,,,-99.99,,2013-02-05 18:11:00,
2013-02-05 10:21:00,60.0,29.0,-100.00,South,180,2.0,4.0,31,-99.99,,,-99.99,,2013-02-05 18:21:00,
2013-02-05 10:31:00,61.0,30.0,-100.00,South,189,3.0,6.0,31,-99.99,,,-99.99,,2013-02-05 18:31:00,
2013-02-05 10:42:00,62.0,29.0,-100.00,South,177,4.0,7.0,29,-99.99,,,-99.99,,2013-02-05 18:42:00,
2013-02-05 10:51:00,62.0,29.0,-100.00,South,185,5.0,9.0,28,-99.99,,,-99.99,,2013-02-05 18:51:00,
2013-02-05 11:01:00,63.0,29.0,-100.00,SSE,167,5.0,9.0,28,-99.99,,,-99.99,,2013-02-05 19:01:00,
2013-02-05 11:11:00,63.0,29.0,-100.00,South,171,6.0,13.0,27,-99.99,,,-99.99,,2013-02-05 19:11:00,
2013-02-05 11:21:00,63.0,29.0,-100.00,South,178,8.0,13.0,27,-99.99,,,-99.99,,2013-02-05 19:21:00,
2013-02-05 11:31:00,64.0,30.0,-100.00,South,169,5.0,10.0,28,-99.99,,,-99.99,,2013-02-05 19:31:00,
2013-02-05 11:42:00,64.0,30.0,-100.00,South,174,8.0,13.0,28,-99.99,,,-99.99,,2013-02-05 19:42:00,
2013-02-05 11:51:00,64.0,31.0,-100.00,South,170,6.0,11.0,29,-99.99,,,-99.99,,2013-02-05 19:51:00,
2013-02-05 12:01:00,64.0,31.0,-100.00,South,181,8.0,12.0,29,-99.99,,,-99.99,,2013-02-05 20:01:00,
2013-02-05 12:11:00,65.0,30.0,-100.00,SSW,209,6.0,23.0,27,-99.99,,,-99.99,,2013-02-05 20:11:00,
2013-02-05 12:21:00,65.0,30.0,-100.00,NNW,342,6.0,16.0,27,-99.99,,,-99.99,,2013-02-05 20:21:00,
2013-02-05 12:31:00,64.0,33.0,-100.00,WNW,288,9.0,16.0,31,-99.99,,,-99.99,,2013-02-05 20:31:00,
2013-02-05 12:41:00,63.0,31.0,-100.00,WNW,285,10.0,17.0,30,-99.99,,,-99.99,,2013-02-05 20:41:00,
2013-02-05 12:52:00,63.0,28.0,-100.00,West,275,10.0,17.0,26,-99.99,,,-99.99,,2013-02-05 20:52:00,
2013-02-05 13:01:00,64.0,28.0,-100.00,WNW,285,9.0,14.0,26,-99.99,,,-99.99,,2013-02-05 21:01:00,
2013-02-05 13:11:00,64.0,29.0,-100.00,West,277,7.0,14.0,27,-99.99,,,-99.99,,2013-02-05 21:11:00,
2013-02-05 13:21:00,64.0,27.0,-100.00,West,270,8.0,12.0,25,-99.99,,,-99.99,,2013-02-05 21:21:00,
2013-02-05 13:31:00,65.0,28.0,-100.00,WNW,286,6.0,13.0,25,-99.99,,,-99.99,,2013-02-05 21:31:00,
2013-02-05 13:41:00,65.0,28.0,-100.00,WNW,289,6.0,13.0,25,-99.99,,,-99.99,,2013-02-05 21:41:00,
2013-02-05 13:51:00,65.0,28.0,-100.00,West,280,6.0,12.0,25,-99.99,,,-99.99,,2013-02-05 21:51:00,
2013-02-05 14:01:00,65.0,28.0,-100.00,West,270,8.0,18.0,25,-99.99,,,-99.99,,2013-02-05 22:01:00,
2013-02-05 14:11:00,66.0,28.0,-100.00,West,277,5.0,11.0,24,-99.99,,,-99.99,,2013-02-05 22:11:00,
2013-02-05 14:21:00,65.0,28.0,-100.00,West,271,10.0,15.0,25,-99.99,,,-99.99,,2013-02-05 22:21:00,
2013-02-05 14:31:00,65.0,30.0,-100.00,WNW,287,9.0,15.0,27,-99.99,,,-99.99,,2013-02-05 22:31:00,
2013-02-05 14:41:00,65.0,30.0,-100.00,WNW,290,10.0,19.0,27,-99.99,,,-99.99,,2013-02-05 22:41:00,
2013-02-05 14:51:00,64.0,29.0,-100.00,West,278,11.0,17.0,27,-99.99,,,-99.99,,2013-02-05 22:51:00,
2013-02-05 15:01:00,64.0,29.0,-100.00,WNW,285,10.0,16.0,27,-99.99,,,-99.99,,2013-02-05 23:01:00,
2013-02-05 15:11:00,64.0,30.0,-100.00,WNW,287,9.0,16.0,28,-99.99,,,-99.99,,2013-02-05 23:11:00,
2013-02-05 15:21:00,63.0,30.0,-100.00,West,277,9.0,15.0,29,-99.99,,,-99.99,,2013-02-05 23:21:00,
2013-02-05 15:32:00,63.0,31.0,-100.00,West,281,8.0,15.0,30,-99.99,,,-99.99,,2013-02-05 23:32:00,
2013-02-05 15:41:00,62.0,32.0,-100.00,WNW,289,8.0,14.0,32,-99.99,,,-99.99,,2013-02-05 23:41:00,
2013-02-05 15:52:00,62.0,33.0,-100.00,WNW,295,8.0,13.0,33,-99.99,,,-99.99,,2013-02-05 23:52:00,
2013-02-05 16:01:00,61.0,33.0,-100.00,WNW,302,7.0,12.0,35,-99.99,,,-99.99,,2013-02-06 00:01:00,
2013-02-05 16:11:00,61.0,31.0,-100.00,NW,323,10.0,14.0,32,-99.99,,,-99.99,,2013-02-06 00:11:00,
2013-02-05 16:21:00,61.0,31.0,-100.00,NW,307,10.0,14.0,32,-99.99,,,-99.99,,2013-02-06 00:21:00,
2013-02-05 16:31:00,61.0,31.0,-100.00,NW,312,8.0,13.0,32,-99.99,,,-99.99,,2013-02-06 00:31:00,
2013-02-05 16:42:00,61.0,30.0,-100.00,NW,322,9.0,14.0,31,-99.99,,,-99.99,,2013-02-06 00:42:00,
2013-02-05 16:52:00,61.0,31.0,-100.00,NW,322,8.0,13.0,32,-99.99,,,-99.99,,2013-02-06 00:52:00,
2013-02-05 17:01:00,60.0,34.0,-100.00,NW,318,9.0,16.0,37,-99.99,,,-99.99,,2013-02-06 01:01:00,
2013-02-05 17:11:00,59.0,33.0,-100.00,NW,318,10.0,15.0,37,-99.99,,,-99.99,,2013-02-06 01:11:00,
2013-02-05 17:21:00,58.0,34.0,-100.00,NW,324,10.0,16.0,41,-99.99,,,-99.99,,2013-02-06 01:21:00,
2013-02-05 17:31:00,57.0,36.0,-100.00,NNW,328,10.0,14.0,45,-99.99,,,-99.99,,2013-02-06 01:31:00,
2013-02-05 17:41:00,57.0,36.0,-100.00,NNW,327,10.0,15.0,46,-99.99,,,-99.99,,2013-02-06 01:41:00,
2013-02-05 17:52:00,56.0,34.0,-100.00,NNW,327,9.0,13.0,44,-99.99,,,-99.99,,2013-02-06 01:52:00,
2013-02-05 18:01:00,56.0,33.0,-100.00,NNW,332,8.0,12.0,42,-99.99,,,-99.99,,2013-02-06 02:01:00,
2013-02-05 18:11:00,56.0,32.0,-100.00,NNW,330,10.0,15.0,40,-99.99,,,-99.99,,2013-02-06 02:11:00,
2013-02-05 18:21:00,56.0,31.0,-100.00,NNW,333,9.0,13.0,39,-99.99,,,-99.99,,2013-02-06 02:21:00,
2013-02-05 18:31:00,55.0,31.0,-100.00,NNW,348,5.0,9.0,40,-99.99,,,-99.99,,2013-02-06 02:31:00,
2013-02-05 18:41:00,53.0,38.0,-100.00,South,182,3.0,5.0,56,-99.99,,,-99.99,,2013-02-06 02:41:00,
2013-02-05 18:52:00,50.0,41.0,-100.00,SSE,155,2.0,5.0,71,-99.99,,,-99.99,,2013-02-06 02:52:00,
2013-02-05 19:02:00,50.0,41.0,-100.00,SSE,155,2.0,5.0,71,-99.99,,,-99.99,,2013-02-06 03:02:00,
2013-02-05 19:11:00,50.0,41.0,-100.00,South,187,3.0,5.0,70,-99.99,,,-99.99,,2013-02-06 03:11:00,
2013-02-05 19:21:00,49.0,42.0,-100.00,SSW,203,7.0,10.0,77,-99.99,,,-99.99,,2013-02-06 03:21:00,
2013-02-05 19:31:00,48.0,43.0,-100.00,South,171,7.0,12.0,82,-99.99,,,-99.99,,2013-02-06 03:31:00,
2013-02-05 19:42:00,48.0,43.0,-100.00,South,177,3.0,6.0,82,-99.99,,,-99.99,,2013-02-06 03:42:00,
2013-02-05 19:52:00,48.0,43.0,-100.00,SSW,211,2.0,5.0,82,-99.99,,,-99.99,,2013-02-06 03:52:00,
2013-02-05 20:01:00,47.0,43.0,-100.00,South,187,4.0,6.0,85,-99.99,,,-99.99,,2013-02-06 04:01:00,
2013-02-05 20:11:00,46.0,43.0,-100.00,South,180,6.0,9.0,89,-99.99,,,-99.99,,2013-02-06 04:11:00,
2013-02-05 20:21:00,46.0,44.0,-100.00,SE,143,2.0,4.0,91,-99.99,,,-99.99,,2013-02-06 04:21:00,
2013-02-05 20:31:00,46.0,44.0,-100.00,WSW,241,3.0,4.0,91,-99.99,,,-99.99,,2013-02-06 04:31:00,
2013-02-05 20:41:00,46.0,44.0,-100.00,NW,304,1.0,3.0,92,-99.99,,,-99.99,,2013-02-06 04:41:00,
2013-02-05 20:51:00,45.0,43.0,-100.00,SSW,196,1.0,3.0,92,-99.99,,,-99.99,,2013-02-06 04:51:00,
2013-02-05 21:01:00,45.0,43.0,-100.00,South,179,2.0,4.0,92,-99.99,,,-99.99,,2013-02-06 05:01:00,
2013-02-05 21:12:00,44.0,42.0,-100.00,SSW,194,1.0,4.0,93,-99.99,,,-99.99,,2013-02-06 05:12:00,
2013-02-05 21:22:00,44.0,42.0,-100.00,SSW,196,3.0,6.0,94,-99.99,,,-99.99,,2013-02-06 05:22:00,
2013-02-05 21:31:00,43.0,42.0,-100.00,SSW,207,3.0,6.0,95,-99.99,,,-99.99,,2013-02-06 05:31:00,
2013-02-05 21:41:00,43.0,42.0,-100.00,South,177,1.0,3.0,95,-99.99,,,-99.99,,2013-02-06 05:41:00,
2013-02-05 21:52:00,44.0,43.0,-100.00,North,5,1.0,3.0,95,-99.99,,,-99.99,,2013-02-06 05:52:00,
2013-02-05 22:01:00,43.0,42.0,-100.00,North,11,0.0,2.0,95,-99.99,,,-99.99,,2013-02-06 06:01:00,
2013-02-05 22:11:00,43.0,42.0,-100.00,NNE,22,0.0,1.0,95,-99.99,,,-99.99,,2013-02-06 06:11:00,
2013-02-05 22:21:00,43.0,42.0,-100.00,South,179,0.0,2.0,95,-99.99,,,-99.99,,2013-02-06 06:21:00,
2013-02-05 22:31:00,42.0,41.0,-100.00,SSW,201,4.0,7.0,96,-99.99,,,-99.99,,2013-02-06 06:31:00,
2013-02-05 22:41:00,42.0,41.0,-100.00,SSW,201,4.0,7.0,96,-99.99,,,-99.99,,2013-02-06 06:41:00,
2013-02-05 22:51:00,41.0,40.0,-100.00,South,184,4.0,6.0,96,-99.99,,,-99.99,,2013-02-06 06:51:00,
2013-02-05 23:01:00,41.0,40.0,-100.00,South,179,3.0,8.0,96,-99.99,,,-99.99,,2013-02-06 07:01:00,
2013-02-05 23:11:00,41.0,40.0,-100.00,South,173,1.0,3.0,96,-99.99,,,-99.99,,2013-02-06 07:11:00,
2013-02-05 23:21:00,41.0,40.0,-100.00,South,189,2.0,3.0,96,-99.99,,,-99.99,,2013-02-06 07:21:00,
2013-02-05 23:32:00,40.0,39.0,-100.00,South,177,2.0,4.0,97,-99.99,,,-99.99,,2013-02-06 07:32:00,
2013-02-05 23:41:00,40.0,39.0,-100.00,SSW,205,2.0,3.0,97,-99.99,,,-99.99,,2013-02-06 07:41:00,
2013-02-05 23:51:00,39.0,38.0,-100.00,ESE,115,1.0,2.0,97,-99.99,,,-99.99,,2013-02-06 07:51:00,